X  Chiuso Dati meteorologici dell'aviazione (METAR)     LIRA Ciampino–G. B. Pastine International Airport
Temperatura
9°C Temperatura
2°C Punto di rugiada
62% Umidità



Vento
14 KM/H
9 MPH
4 M/S
8 KTS



30°
NNE
Condizioni attuali

Chiaro Chiaro
Pressione 1019.92 (hPa) - 30.12 (inHg)
Visibilità 6.2 (miglio) - 10 (km)
Aeroporto
Aeroporto-code LIRA

Posizione: Ciampino–G. B. Pastine International Airport
Distanza: 6 (km)

Metar:
LIRA 291050Z 03008KT CAVOK 09/02 Q1020

Ore: 29-01-2023 11:50 CET